createdAt,value
2022-10-17T00:00:09.311Z,3.87
2022-10-17T00:02:35.638Z,4.00
2022-10-17T00:05:01.988Z,4.33
2022-10-17T00:07:28.700Z,3.73
2022-10-17T00:09:55.275Z,3.77
2022-10-17T00:12:21.594Z,2.90
2022-10-17T00:14:47.994Z,3.30
2022-10-17T00:17:15.569Z,3.83
2022-10-17T00:19:42.220Z,3.47
2022-10-17T00:22:08.565Z,3.13
2022-10-17T00:24:34.902Z,3.20
2022-10-17T00:27:01.227Z,3.40
2022-10-17T00:29:27.606Z,2.87
2022-10-17T00:31:57.230Z,3.20
2022-10-17T00:34:24.262Z,3.00
2022-10-17T00:36:50.604Z,3.00
2022-10-17T00:39:17.075Z,3.23
2022-10-17T00:41:43.416Z,3.20
2022-10-17T00:44:28.473Z,3.17
2022-10-17T00:46:55.098Z,3.27
2022-10-17T00:49:22.182Z,3.30
2022-10-17T00:51:53.860Z,3.27
2022-10-17T00:54:23.223Z,3.40
2022-10-17T00:56:49.901Z,3.50
2022-10-17T00:59:16.953Z,3.00
2022-10-17T01:01:48.155Z,3.07
2022-10-17T01:04:14.711Z,3.17
2022-10-17T01:06:41.051Z,3.07
2022-10-17T01:09:07.383Z,3.13
2022-10-17T01:11:39.558Z,3.30
2022-10-17T01:14:12.088Z,3.03
2022-10-17T01:16:57.973Z,3.10
2022-10-17T01:19:30.295Z,3.53
2022-10-17T01:21:59.806Z,3.30
2022-10-17T01:24:28.992Z,2.93
2022-10-17T01:27:23.808Z,2.70
2022-10-17T01:29:55.257Z,2.43
2022-10-17T01:32:37.200Z,3.07
2022-10-17T01:35:12.102Z,2.80
2022-10-17T01:37:38.423Z,2.77
2022-10-17T01:40:14.575Z,2.50
2022-10-17T01:43:02.636Z,2.40
2022-10-17T01:45:28.929Z,2.30
2022-10-17T01:47:56.764Z,2.63
2022-10-17T01:50:31.055Z,2.40
2022-10-17T01:53:00.294Z,2.50
2022-10-17T01:55:35.555Z,2.67
2022-10-17T01:58:07.797Z,3.40
2022-10-17T02:00:35.460Z,2.90
2022-10-17T02:03:04.126Z,2.50
2022-10-17T02:05:38.887Z,2.00
2022-10-17T02:08:05.490Z,2.53
2022-10-17T02:10:44.127Z,2.07
2022-10-17T02:13:13.574Z,3.17
2022-10-17T02:15:39.893Z,2.70
2022-10-17T02:18:15.608Z,2.30
2022-10-17T02:20:50.842Z,2.87
2022-10-17T02:23:21.985Z,2.90
2022-10-17T02:25:51.326Z,2.23
2022-10-17T02:28:20.647Z,2.40
2022-10-17T02:30:50.120Z,2.70
2022-10-17T02:33:34.482Z,2.57
2022-10-17T02:36:03.957Z,2.23
2022-10-17T02:38:30.711Z,2.43
2022-10-17T02:40:57.501Z,2.37
2022-10-17T02:43:23.905Z,2.43
2022-10-17T02:45:50.561Z,2.40
2022-10-17T02:48:19.675Z,2.67
2022-10-17T02:50:56.606Z,2.87
2022-10-17T02:53:27.242Z,2.60
2022-10-17T02:55:56.540Z,2.60
2022-10-17T02:58:28.140Z,2.47
2022-10-17T03:00:54.537Z,2.60
2022-10-17T03:03:28.530Z,2.80
2022-10-17T03:05:55.126Z,2.30
2022-10-17T03:08:21.854Z,2.70
2022-10-17T03:10:48.247Z,2.70
2022-10-17T03:13:14.963Z,2.33
2022-10-17T03:15:41.418Z,2.60
2022-10-17T03:18:07.747Z,2.40
2022-10-17T03:20:34.094Z,2.33
2022-10-17T03:23:00.510Z,3.43
2022-10-17T03:25:26.942Z,2.67
2022-10-17T03:27:53.274Z,2.60
2022-10-17T03:30:19.654Z,2.80
2022-10-17T03:32:46.207Z,2.53
2022-10-17T03:35:15.032Z,2.40
2022-10-17T03:37:41.601Z,2.10
2022-10-17T03:40:08.293Z,2.03
2022-10-17T03:42:34.627Z,2.67
2022-10-17T03:45:00.954Z,2.10
2022-10-17T03:47:28.656Z,2.10
2022-10-17T03:49:55.183Z,2.07
2022-10-17T03:52:21.646Z,2.23
2022-10-17T03:54:49.341Z,2.57
2022-10-17T03:57:15.702Z,2.27
2022-10-17T03:59:42.074Z,2.00
2022-10-17T04:02:08.471Z,2.27
2022-10-17T04:04:34.843Z,2.67
2022-10-17T04:07:01.171Z,2.00
2022-10-17T04:09:27.630Z,2.70
2022-10-17T04:11:54.095Z,2.63
2022-10-17T04:14:20.711Z,2.63
2022-10-17T04:16:47.078Z,2.77
2022-10-17T04:19:13.638Z,2.27
2022-10-17T04:21:40.269Z,2.70
2022-10-17T04:24:06.598Z,2.27
2022-10-17T04:26:32.954Z,2.40
2022-10-17T04:28:59.305Z,2.50
2022-10-17T04:31:25.638Z,2.80
2022-10-17T04:33:51.996Z,1.80
2022-10-17T04:36:19.121Z,2.07
2022-10-17T04:38:45.549Z,2.63
2022-10-17T04:41:13.731Z,2.30
2022-10-17T04:43:40.289Z,2.53
2022-10-17T04:46:07.918Z,2.10
2022-10-17T04:48:34.288Z,2.43
2022-10-17T04:51:02.284Z,2.30
2022-10-17T04:53:29.050Z,2.60
2022-10-17T04:55:55.369Z,2.47
2022-10-17T04:58:21.709Z,2.40
2022-10-17T05:00:48.110Z,2.40
2022-10-17T05:03:14.610Z,2.57
2022-10-17T05:05:41.548Z,2.73
2022-10-17T05:08:08.451Z,2.50
2022-10-17T05:10:38.585Z,2.47
2022-10-17T05:13:05.531Z,2.40
2022-10-17T05:15:32.370Z,2.60
2022-10-17T05:17:58.843Z,2.67
2022-10-17T05:20:25.254Z,2.33
2022-10-17T05:22:51.609Z,2.67
2022-10-17T05:25:17.969Z,2.47
2022-10-17T05:27:44.290Z,2.63
2022-10-17T05:30:10.742Z,2.53
2022-10-17T05:32:37.376Z,2.97
2022-10-17T05:35:04.437Z,2.40
2022-10-17T05:37:31.557Z,2.93
2022-10-17T05:39:58.222Z,3.03
2022-10-17T05:42:24.673Z,3.20
2022-10-17T05:44:51.081Z,2.77
2022-10-17T05:47:17.422Z,3.43
2022-10-17T05:49:48.539Z,3.30
2022-10-17T05:52:17.687Z,3.43
2022-10-17T05:54:44.043Z,2.90
2022-10-17T05:57:10.731Z,3.33
2022-10-17T05:59:37.087Z,2.70
2022-10-17T06:02:03.570Z,3.10
2022-10-17T06:04:29.950Z,3.13
2022-10-17T06:06:56.407Z,3.30
2022-10-17T06:09:23.456Z,3.30
2022-10-17T06:11:50.196Z,3.40
2022-10-17T06:14:16.663Z,2.93
2022-10-17T06:16:43.705Z,2.70
2022-10-17T06:19:11.669Z,2.87
2022-10-17T06:21:39.156Z,2.93
2022-10-17T06:24:05.613Z,2.87
2022-10-17T06:26:32.010Z,3.70
2022-10-17T06:28:58.385Z,2.93
2022-10-17T06:31:24.798Z,3.00
2022-10-17T06:33:51.197Z,3.03
2022-10-17T06:36:17.563Z,2.67
2022-10-17T06:38:43.932Z,2.90
2022-10-17T06:41:13.399Z,3.40
2022-10-17T06:43:40.635Z,2.80
2022-10-17T06:46:07.021Z,3.40
2022-10-17T06:48:33.348Z,2.87
2022-10-17T06:51:00.655Z,3.03
2022-10-17T06:53:28.548Z,2.47
2022-10-17T06:55:55.439Z,2.63
2022-10-17T06:58:22.278Z,2.73
2022-10-17T07:00:48.742Z,2.90
2022-10-17T07:03:15.161Z,3.47
2022-10-17T07:05:41.500Z,3.00
2022-10-17T07:08:07.914Z,2.60
2022-10-17T07:10:38.346Z,3.17
2022-10-17T07:13:05.098Z,3.23
2022-10-17T07:15:32.471Z,2.30
2022-10-17T07:17:58.851Z,2.57
2022-10-17T07:20:25.383Z,2.70
2022-10-17T07:22:51.768Z,3.00
2022-10-17T07:25:18.191Z,2.73
2022-10-17T07:27:44.565Z,2.83
2022-10-17T07:30:11.157Z,3.27
2022-10-17T07:32:37.599Z,2.80
2022-10-17T07:35:04.123Z,3.30
2022-10-17T07:37:30.817Z,2.40
2022-10-17T07:39:57.534Z,2.80
2022-10-17T07:42:24.243Z,2.50
2022-10-17T07:44:51.198Z,3.43
2022-10-17T07:47:17.536Z,2.37
2022-10-17T07:49:45.286Z,3.23
2022-10-17T07:52:12.425Z,2.80
2022-10-17T07:54:38.860Z,2.60
2022-10-17T07:57:05.228Z,2.63
2022-10-17T07:59:32.658Z,2.77
2022-10-17T08:01:59.602Z,2.90
2022-10-17T08:04:26.480Z,2.50
2022-10-17T08:06:56.458Z,2.30
2022-10-17T08:09:27.011Z,2.57
2022-10-17T08:11:54.124Z,2.40
2022-10-17T08:14:20.552Z,2.47
2022-10-17T08:16:46.945Z,2.77
2022-10-17T08:19:13.321Z,3.43
2022-10-17T08:21:39.955Z,2.80
2022-10-17T08:24:06.845Z,2.10
2022-10-17T08:26:33.193Z,2.10
2022-10-17T08:28:59.621Z,2.63
2022-10-17T08:31:27.311Z,2.90
2022-10-17T08:33:53.715Z,2.57
2022-10-17T08:36:20.820Z,2.67
2022-10-17T08:38:52.459Z,2.37
2022-10-17T08:41:19.231Z,2.47
2022-10-17T08:44:05.527Z,2.90
2022-10-17T08:46:33.844Z,2.60
2022-10-17T08:49:01.247Z,2.90
2022-10-17T08:51:30.139Z,2.83
2022-10-17T08:54:00.868Z,3.10
2022-10-17T08:56:48.808Z,2.90
2022-10-17T08:59:21.736Z,2.97
2022-10-17T09:01:57.582Z,3.90
2022-10-17T09:04:53.435Z,2.80
2022-10-17T09:07:30.459Z,2.60
2022-10-17T09:10:21.349Z,2.60
2022-10-17T09:12:54.461Z,2.83
2022-10-17T09:15:31.178Z,2.63
2022-10-17T09:18:09.524Z,2.97
2022-10-17T09:20:42.087Z,2.77
2022-10-17T09:23:13.792Z,2.80
2022-10-17T09:26:09.714Z,2.43
2022-10-17T09:28:37.669Z,2.40
2022-10-17T09:31:12.821Z,2.60
2022-10-17T09:33:58.948Z,2.40
2022-10-17T09:36:36.355Z,2.40
2022-10-17T09:39:10.382Z,2.17
2022-10-17T09:41:45.477Z,2.50
2022-10-17T09:44:31.970Z,2.30
2022-10-17T09:47:04.329Z,2.40
2022-10-17T09:49:35.634Z,2.70
2022-10-17T09:52:03.329Z,1.93
2022-10-17T09:54:34.283Z,2.50
2022-10-17T09:57:02.812Z,2.20
2022-10-17T09:59:34.102Z,2.20
2022-10-17T10:02:12.743Z,2.20
2022-10-17T10:05:03.751Z,2.63
2022-10-17T10:07:36.060Z,2.28
2022-10-17T10:10:03.974Z,2.90
2022-10-17T10:12:31.993Z,2.60
2022-10-17T10:14:58.662Z,2.08
2022-10-17T10:17:34.598Z,2.70
2022-10-17T10:20:01.477Z,2.13
2022-10-17T10:22:28.310Z,2.33
2022-10-17T10:25:08.631Z,2.00
2022-10-17T10:27:35.483Z,2.40
2022-10-17T10:30:02.247Z,3.10
2022-10-17T10:32:30.563Z,2.45
2022-10-17T10:35:16.176Z,2.63
2022-10-17T10:37:44.396Z,2.50
2022-10-17T10:40:25.911Z,2.42
2022-10-17T10:42:54.204Z,2.47
2022-10-17T10:45:46.910Z,2.20
2022-10-17T10:48:25.249Z,2.70
2022-10-17T10:51:00.559Z,2.20
2022-10-17T10:53:35.420Z,2.42
2022-10-17T10:56:20.052Z,2.90
2022-10-17T10:58:53.150Z,2.40
2022-10-17T11:01:22.233Z,2.40
2022-10-17T11:03:51.543Z,2.63
2022-10-17T11:06:21.301Z,2.60
2022-10-17T11:08:49.942Z,2.27
2022-10-17T11:11:19.831Z,2.23
2022-10-17T11:14:00.546Z,3.53
2022-10-17T11:16:38.049Z,2.80
2022-10-17T11:19:22.979Z,3.13
2022-10-17T11:22:01.651Z,3.60
2022-10-17T11:24:30.012Z,2.80
2022-10-17T11:26:56.349Z,2.60
2022-10-17T11:29:24.952Z,3.00
2022-10-17T11:31:52.788Z,2.73
2022-10-17T11:34:25.185Z,3.13
2022-10-17T11:36:54.643Z,2.93
2022-10-17T11:39:34.455Z,2.73
2022-10-17T11:42:06.632Z,2.80
2022-10-17T11:44:36.941Z,3.40
2022-10-17T11:47:11.952Z,2.47
2022-10-17T11:49:41.926Z,2.40
2022-10-17T11:52:26.965Z,3.17
2022-10-17T11:55:10.139Z,3.17
2022-10-17T11:57:39.589Z,2.90
2022-10-17T12:00:29.100Z,3.33
2022-10-17T12:02:58.264Z,3.40
2022-10-17T12:05:28.895Z,3.70
2022-10-17T12:08:04.838Z,3.53
2022-10-17T12:10:42.770Z,3.53
2022-10-17T12:13:27.519Z,3.93
2022-10-17T12:15:54.536Z,3.60
2022-10-17T12:18:24.150Z,3.80
2022-10-17T12:21:00.526Z,3.60
2022-10-17T12:23:28.047Z,3.80
2022-10-17T12:26:01.692Z,3.73
2022-10-17T12:28:36.990Z,3.63
2022-10-17T12:31:12.984Z,3.77
2022-10-17T12:33:48.674Z,3.87
2022-10-17T12:36:27.047Z,3.73
2022-10-17T12:38:56.500Z,4.20
2022-10-17T12:41:38.173Z,5.00
2022-10-17T12:44:14.005Z,3.67
2022-10-17T12:46:51.337Z,4.50
2022-10-17T12:49:21.191Z,4.37
2022-10-17T12:52:14.775Z,4.20
2022-10-17T12:54:47.526Z,4.23
2022-10-17T12:57:22.062Z,6.33
2022-10-17T12:59:49.045Z,4.67
2022-10-17T13:02:20.599Z,4.40
2022-10-17T13:04:48.025Z,4.20
2022-10-17T13:07:21.283Z,4.93
2022-10-17T13:09:48.750Z,4.93
2022-10-17T13:12:18.441Z,4.33
2022-10-17T13:14:45.557Z,3.87
2022-10-17T13:17:22.851Z,4.00
2022-10-17T13:19:49.215Z,5.50
2022-10-17T13:22:24.180Z,7.40
2022-10-17T13:24:52.428Z,7.60
2022-10-17T13:27:21.799Z,8.07
2022-10-17T13:29:48.176Z,9.33
2022-10-17T13:32:14.503Z,9.23
2022-10-17T13:34:40.870Z,10.60
2022-10-17T13:37:11.328Z,10.13
2022-10-17T13:39:58.005Z,11.03
2022-10-17T13:42:28.571Z,11.57
2022-10-17T13:44:55.750Z,11.53
2022-10-17T13:47:23.702Z,11.83
2022-10-17T13:49:54.277Z,15.57
2022-10-17T13:52:23.237Z,12.40
2022-10-17T13:54:53.853Z,12.87
2022-10-17T13:57:25.120Z,13.17
2022-10-17T13:59:57.372Z,12.30
2022-10-17T14:02:25.008Z,13.17
2022-10-17T14:05:19.862Z,13.67
2022-10-17T14:08:10.174Z,12.93
2022-10-17T14:10:34.654Z,12.13
2022-10-17T14:13:02.191Z,13.07
2022-10-17T14:15:29.394Z,12.47
2022-10-17T14:18:07.584Z,13.53
2022-10-17T14:21:19.476Z,15.23
2022-10-17T14:23:30.990Z,14.80
2022-10-17T14:26:12.020Z,14.03
2022-10-17T14:28:38.708Z,14.10
2022-10-17T14:31:10.931Z,13.43
2022-10-17T14:33:39.951Z,14.47
2022-10-17T14:36:09.025Z,17.97
2022-10-17T14:38:36.082Z,39.80
2022-10-17T14:41:41.448Z,28.03
2022-10-17T14:44:06.719Z,14.90
2022-10-17T14:46:34.607Z,13.13
2022-10-17T14:49:07.868Z,13.63
2022-10-17T14:51:44.752Z,14.47
2022-10-17T14:54:29.206Z,14.43
2022-10-17T14:56:56.023Z,14.50
2022-10-17T14:59:52.908Z,14.90
2022-10-17T15:02:11.509Z,15.13
2022-10-17T15:04:37.961Z,14.70
2022-10-17T15:07:04.499Z,14.73
2022-10-17T15:09:31.181Z,14.40
2022-10-17T15:12:02.491Z,14.03
2022-10-17T15:14:29.443Z,14.17
2022-10-17T15:16:55.817Z,14.63
2022-10-17T15:19:22.147Z,14.23
2022-10-17T15:21:51.642Z,15.60
2022-10-17T15:24:18.003Z,15.43
2022-10-17T15:26:44.405Z,28.57
2022-10-17T15:29:14.747Z,16.27
2022-10-17T15:31:41.692Z,16.03
2022-10-17T15:34:08.073Z,17.23
2022-10-17T15:36:37.054Z,16.47
2022-10-17T15:39:03.572Z,17.43
2022-10-17T15:41:40.538Z,17.13
2022-10-17T15:44:08.391Z,17.17
2022-10-17T15:46:36.441Z,15.83
2022-10-17T15:49:10.359Z,17.23
2022-10-17T15:51:36.985Z,14.97
2022-10-17T15:54:05.031Z,16.03
2022-10-17T15:56:32.493Z,15.17
2022-10-17T15:58:58.972Z,15.47
2022-10-17T16:01:27.111Z,14.30
2022-10-17T16:03:53.805Z,13.67
2022-10-17T16:06:21.055Z,14.33
2022-10-17T16:08:48.099Z,14.30
2022-10-17T16:11:34.690Z,13.00
2022-10-17T16:14:02.618Z,14.60
2022-10-17T16:16:29.363Z,13.67
2022-10-17T16:18:56.052Z,12.43
2022-10-17T16:21:25.190Z,12.87
2022-10-17T16:23:51.754Z,13.00
2022-10-17T16:26:18.276Z,14.23
2022-10-17T16:28:46.265Z,13.00
2022-10-17T16:31:23.155Z,14.57
2022-10-17T16:33:50.996Z,15.67
2022-10-17T16:36:17.616Z,15.37
2022-10-17T16:38:44.525Z,16.47
2022-10-17T16:41:20.355Z,15.67
2022-10-17T16:43:47.570Z,17.43
2022-10-17T16:46:14.091Z,17.10
2022-10-17T16:48:41.213Z,17.70
2022-10-17T16:51:07.922Z,16.83
2022-10-17T16:53:34.407Z,16.80
2022-10-17T16:56:04.299Z,16.43
2022-10-17T16:58:33.438Z,15.90
2022-10-17T17:01:00.550Z,16.63
2022-10-17T17:03:26.975Z,15.20
2022-10-17T17:05:53.403Z,14.67
2022-10-17T17:08:19.890Z,16.27
2022-10-17T17:10:47.157Z,15.37
2022-10-17T17:13:13.515Z,16.23
2022-10-17T17:15:39.909Z,15.47
2022-10-17T17:18:06.906Z,15.77
2022-10-17T17:20:34.033Z,17.10
2022-10-17T17:23:00.466Z,15.40
2022-10-17T17:25:26.883Z,16.40
2022-10-17T17:27:53.214Z,17.03
2022-10-17T17:30:19.692Z,17.93
2022-10-17T17:32:46.074Z,18.23
2022-10-17T17:35:12.420Z,18.60
2022-10-17T17:37:38.772Z,20.13
2022-10-17T17:40:06.210Z,20.00
2022-10-17T17:42:32.547Z,20.33
2022-10-17T17:44:58.910Z,19.60
2022-10-17T17:47:28.351Z,22.77
2022-10-17T17:49:54.854Z,21.77
2022-10-17T17:52:21.192Z,22.77
2022-10-17T17:54:47.555Z,19.97
2022-10-17T17:57:13.950Z,21.03
2022-10-17T17:59:41.498Z,19.40
2022-10-17T18:02:08.909Z,21.37
2022-10-17T18:04:35.285Z,22.30
2022-10-17T18:07:01.657Z,23.80
2022-10-17T18:09:27.974Z,22.63
2022-10-17T18:11:54.352Z,22.53
2022-10-17T18:14:23.853Z,23.27
2022-10-17T18:16:50.362Z,21.53
2022-10-17T18:19:16.801Z,22.13
2022-10-17T18:21:44.357Z,22.60
2022-10-17T18:24:10.823Z,21.47
2022-10-17T18:26:37.197Z,21.63
2022-10-17T18:29:03.907Z,21.33
2022-10-17T18:31:35.821Z,21.47
2022-10-17T18:34:03.210Z,22.10
2022-10-17T18:36:30.246Z,21.27
2022-10-17T18:38:56.909Z,21.13
2022-10-17T18:41:24.694Z,21.87
2022-10-17T18:43:51.801Z,20.50
2022-10-17T18:46:19.434Z,21.53
2022-10-17T18:48:46.700Z,20.97
2022-10-17T18:51:14.217Z,21.67
2022-10-17T18:53:41.618Z,20.47
2022-10-17T18:56:08.261Z,20.97
2022-10-17T18:58:34.915Z,19.67
2022-10-17T19:01:01.975Z,21.37
2022-10-17T19:03:28.354Z,20.97
2022-10-17T19:05:56.701Z,21.47
2022-10-17T19:08:25.552Z,19.73
2022-10-17T19:10:52.070Z,23.13
2022-10-17T19:13:21.537Z,21.33
2022-10-17T19:15:48.990Z,22.30
2022-10-17T19:18:15.413Z,20.03
2022-10-17T19:20:41.739Z,21.83
2022-10-17T19:23:08.128Z,20.20
2022-10-17T19:25:34.467Z,19.53
2022-10-17T19:28:00.902Z,18.47
2022-10-17T19:30:27.267Z,16.03
2022-10-17T19:32:53.726Z,12.43
2022-10-17T19:35:20.074Z,9.80
2022-10-17T19:37:46.487Z,8.40
2022-10-17T19:40:13.441Z,8.60
2022-10-17T19:42:39.854Z,9.43
2022-10-17T19:45:06.608Z,9.07
2022-10-17T19:47:33.336Z,17.43
2022-10-17T19:49:59.818Z,6.63
2022-10-17T19:52:26.218Z,6.30
2022-10-17T19:54:52.576Z,5.80
2022-10-17T19:57:19.069Z,5.93
2022-10-17T19:59:45.603Z,5.73
2022-10-17T20:02:13.021Z,5.40
2022-10-17T20:04:49.580Z,4.93
2022-10-17T20:07:25.842Z,4.63
2022-10-17T20:09:52.194Z,4.27
2022-10-17T20:12:18.537Z,3.50
2022-10-17T20:14:44.979Z,3.63
2022-10-17T20:17:11.308Z,3.10
2022-10-17T20:19:37.674Z,3.30
2022-10-17T20:22:04.012Z,3.40
2022-10-17T20:24:30.364Z,3.13
2022-10-17T20:26:56.725Z,3.20
2022-10-17T20:29:24.101Z,19.97
2022-10-17T20:31:50.936Z,22.50
2022-10-17T20:34:17.930Z,4.20
2022-10-17T20:36:44.359Z,2.77
2022-10-17T20:39:12.275Z,3.10
2022-10-17T20:41:38.726Z,3.07
2022-10-17T20:44:06.879Z,3.33
2022-10-17T20:46:37.784Z,3.27
2022-10-17T20:49:07.163Z,3.27
2022-10-17T20:51:34.190Z,3.17
2022-10-17T20:54:00.600Z,3.13
2022-10-17T20:56:28.837Z,3.43
2022-10-17T20:58:56.973Z,3.80
2022-10-17T21:01:23.942Z,3.63
2022-10-17T21:03:50.511Z,3.23
2022-10-17T21:06:17.505Z,3.70
2022-10-17T21:08:44.228Z,3.87
2022-10-17T21:11:15.203Z,4.10
2022-10-17T21:13:42.693Z,3.47
2022-10-17T21:16:14.032Z,3.70
2022-10-17T21:18:40.824Z,3.40
2022-10-17T21:21:08.582Z,3.30
2022-10-17T21:23:34.925Z,3.23
2022-10-17T21:26:01.298Z,3.40
2022-10-17T21:28:27.707Z,9.10
2022-10-17T21:30:54.042Z,3.10
2022-10-17T21:33:20.354Z,2.63
2022-10-17T21:35:46.689Z,2.93
2022-10-17T21:38:13.032Z,3.27
2022-10-17T21:40:39.373Z,2.93
2022-10-17T21:43:05.703Z,3.43
2022-10-17T21:45:35.440Z,3.10
2022-10-17T21:48:12.567Z,3.63
2022-10-17T21:50:39.697Z,4.00
2022-10-17T21:53:06.040Z,4.00
2022-10-17T21:55:32.374Z,4.73
2022-10-17T21:57:58.715Z,5.17
2022-10-17T22:00:25.083Z,5.60
2022-10-17T22:02:51.439Z,6.20
2022-10-17T22:05:17.794Z,6.83
2022-10-17T22:07:44.116Z,6.07
2022-10-17T22:10:10.487Z,7.37
2022-10-17T22:12:36.811Z,7.17
2022-10-17T22:15:03.266Z,7.43
2022-10-17T22:17:30.107Z,7.77
2022-10-17T22:19:56.635Z,8.40
2022-10-17T22:22:22.950Z,7.50
2022-10-17T22:24:49.303Z,7.60
2022-10-17T22:27:15.631Z,7.80
2022-10-17T22:29:41.973Z,8.50
2022-10-17T22:32:08.323Z,8.27
2022-10-17T22:34:34.709Z,7.40
2022-10-17T22:37:01.039Z,7.63
2022-10-17T22:39:27.396Z,8.60
2022-10-17T22:41:53.723Z,8.43
2022-10-17T22:44:20.052Z,7.80
2022-10-17T22:46:46.468Z,8.40
2022-10-17T22:49:12.854Z,9.17
2022-10-17T22:51:39.313Z,7.90
2022-10-17T22:54:05.843Z,8.67
2022-10-17T22:56:32.234Z,8.37
2022-10-17T22:58:58.605Z,8.17
2022-10-17T23:01:25.493Z,8.20
2022-10-17T23:03:52.579Z,8.90
2022-10-17T23:06:19.214Z,8.50
2022-10-17T23:08:45.794Z,8.57
2022-10-17T23:11:12.327Z,8.90
2022-10-17T23:13:40.709Z,8.90
2022-10-17T23:16:07.710Z,7.83
2022-10-17T23:18:34.096Z,9.17
2022-10-17T23:21:00.439Z,9.17
2022-10-17T23:23:26.753Z,8.53
2022-10-17T23:25:53.202Z,9.70
2022-10-17T23:28:19.541Z,9.30
2022-10-17T23:30:45.974Z,8.70
2022-10-17T23:33:13.065Z,8.43
2022-10-17T23:35:39.877Z,9.53
2022-10-17T23:38:06.326Z,9.13
2022-10-17T23:40:32.806Z,9.07
2022-10-17T23:42:59.147Z,8.43
2022-10-17T23:45:25.643Z,9.87
2022-10-17T23:47:52.027Z,8.80
2022-10-17T23:50:18.516Z,9.03
2022-10-17T23:52:44.862Z,9.47
2022-10-17T23:55:11.271Z,9.93
2022-10-17T23:57:37.651Z,9.40
